Station: CLARE AWS

  Atmospheric Gas Attenuation - ITU Rec 676-11   --------------- db/100km ---------------
Date Time Temp RH % AH g/m3 Dew Point Wind Direction Speed kph Gust kph Barometer mB Rainfall Since 9am 24GHz 47GHz 76GHz 122GHz 134GHz 241GHz
25 00:30 15.6 59 7.85 7.6 6 9 1012.8 0 17.9 24.2 36.0 94.3 86.6 297.4
25 00:20 15.5 60 7.93 7.8 6 7 1013.2 0 18.1 24.4 36.4 95.3 87.7 301.3
25 00:10 15.7 60 8.03 8 4 6 1013.2 0 18.3 24.5 36.7 96.1 88.8 305.0
25 00:00 16 58 7.9 7.7 6 9 1013.2 0 18.0 24.2 36.0 94.4 86.8 298.2
24 23:50 16.1 58 7.95 7.8 7 7 1013.5 0 18.1 24.2 36.2 94.8 87.3 300.0
24 23:40 16.2 57 7.86 7.7 7 9 1013.5 0 17.9 24.1 35.8 93.8 86.1 295.7
24 23:30 15.8 59 7.94 7.8 6 11 1013.3 0 18.1 24.3 36.3 95.0 87.5 300.7
24 23:20 15.5 59 7.8 7.5 6 7 1013.7 0 17.8 24.2 35.9 94.0 86.1 295.8
24 23:10 15.8 56 7.54 7 4 7 1013.8 0 17.2 23.7 34.8 91.1 82.6 283.3
24 23:00 16.1 55 7.54 7.1 4 9 1013.8 0 17.2 23.6 34.6 90.7 82.3 282.3
24 22:50 16.5 52 7.3 6.6 0 0 1013.9 0 16.7 23.2 33.6 87.9 78.9 270.6
24 22:40 16.8 51 7.29 6.6 7 9 1013.9 0 16.7 23.1 33.4 87.5 78.5 269.2
24 22:30 17 50 7.23 6.5 7 15 1013.9 0 16.5 22.9 33.1 86.7 77.6 266.0
24 22:20 16.9 49 7.05 6.1 7 11 1014 0 16.2 22.7 32.5 85.0 75.5 258.8
24 22:10 17 48 6.95 5.9 7 9 1014 0 15.9 22.5 32.1 84.0 74.3 254.3
24 22:00 17.3 47 6.92 5.9 6 9 1013.9 0 15.9 22.4 31.9 83.4 73.6 252.1
24 21:50 17.2 49 7.18 6.4 6 6 1014 0 16.4 22.8 32.9 86.0 76.8 263.3
24 21:40 17.3 49 7.22 6.5 4 7 1014 0 16.5 22.8 33.0 86.3 77.2 264.6
24 21:30 17.4 49 7.26 6.6 6 11 1013.8 0 16.6 22.9 33.1 86.5 77.6 265.9
24 21:20 17.8 47 7.13 6.3 7 9 1013.8 0 16.3 22.6 32.4 84.9 75.6 259.2
24 21:10 18.1 47 7.26 6.6 7 9 1013.8 0 16.6 22.7 32.8 85.8 76.9 263.6
24 21:00 18.5 46 7.28 6.7 7 13 1013.5 0 16.6 22.6 32.7 85.5 76.7 263.1
24 20:50 18.8 45 7.25 6.6 11 13 1013.7 0 16.5 22.5 32.5 84.9 76.1 260.9
24 20:40 19.1 45 7.38 6.9 7 9 1013.6 0 16.8 22.6 32.8 85.9 77.3 265.3
24 20:30 19.6 43 7.26 6.7 9 15 1013.2 0 16.5 22.3 32.2 84.2 75.4 258.7
24 20:20 19.8 43 7.34 6.9 9 11 1013.3 0 16.7 22.4 32.4 84.7 76.2 261.3
24 20:10 20.1 42 7.3 6.8 9 11 1013.3 0 16.6 22.3 32.1 84.0 75.4 258.7
24 20:00 20.7 40 7.2 6.6 13 20 1013 0 16.3 22.0 31.5 82.5 73.7 252.8
24 19:50 21.4 38 7.12 6.5 17 22 1013.2 0 16.1 21.7 31.0 81.0 72.2 247.5
24 19:40 22 35 6.79 5.8 7 9 1013.2 0 15.4 21.1 29.7 77.5 68.0 232.8
24 19:30 22.5 33 6.59 5.4 13 22 1012.9 0 15.0 20.7 28.8 75.2 65.3 223.6
24 19:20 22.9 32 6.54 5.3 17 19 1013.1 0 14.9 20.6 28.5 74.4 64.5 220.7
24 19:10 23.1 32 6.61 5.5 11 13 1013 0 15.0 20.6 28.7 74.8 65.1 222.8
24 19:00 23.5 30 6.34 4.9 13 20 1012.7 0 14.4 20.2 27.6 72.1 61.9 211.5
24 18:50 24.3 29 6.42 5.1 11 15 1012.9 0 14.6 20.1 27.6 72.1 62.1 212.5
24 18:40 24.2 29 6.38 5.1 13 17 1012.9 0 14.5 20.1 27.6 71.9 61.8 211.2
24 18:30 24.6 28 6.3 4.9 13 20 1012.8 0 14.3 19.9 27.2 70.8 60.6 207.2
24 18:20 24.9 26 5.95 4.1 13 17 1013 0 13.6 19.4 26.0 67.7 56.8 193.8
24 18:10 24.9 26 5.95 4.1 15 17 1013 0 13.6 19.4 26.0 67.7 56.8 193.8
24 18:00 24.8 26 5.92 4 17 26 1012.8 0 13.5 19.3 25.9 67.5 56.5 192.9
24 17:50 25.4 26 6.12 4.5 13 19 1013 0 13.9 19.5 26.3 68.7 58.2 198.8
24 17:40 25.1 26 6.02 4.3 13 15 1013 0 13.7 19.4 26.1 68.1 57.4 195.8
24 17:30 25.3 27 6.32 5 13 17 1013 0 14.3 19.8 27.0 70.4 60.3 206.3
24 17:20 26 29 7.06 6.6 17 20 1013.1 0 15.8 20.6 29.1 76.1 67.6 231.8
24 17:10 25.6 30 7.14 6.7 11 15 1013.3 0 16.0 20.8 29.5 77.2 68.8 236.0
24 17:00 25.5 29 6.87 6.2 15 26 1013.1 0 15.4 20.4 28.7 74.9 65.9 226.1
24 16:50 25.4 30 7.06 6.6 15 19 1013.3 0 15.8 20.7 29.3 76.7 68.1 233.5
24 16:40 25.5 30 7.1 6.7 11 13 1013.4 0 15.9 20.7 29.4 77.0 68.4 234.8
24 16:30 24.9 30 6.87 6.1 15 26 1013.2 0 15.5 20.6 28.9 75.5 66.4 227.8
24 16:20 25.2 30 6.98 6.4 17 19 1013.5 0 15.7 20.6 29.2 76.2 67.4 231.1
24 16:10 25.3 31 7.26 7 20 26 1013.4 0 16.3 21.0 30.0 78.5 70.3 241.4
24 16:00 25.4 30 7.06 6.6 15 28 1013.3 0 15.8 20.7 29.3 76.7 68.1 233.5
24 15:50 25.9 32 7.75 8 11 15 1013.6 0 17.3 21.5 31.4 82.3 75.1 258.2
24 15:40 25.6 29 6.9 6.3 15 19 1013.7 0 15.5 20.5 28.8 75.2 66.2 227.1
24 15:30 25.4 29 6.83 6.1 15 26 1013.5 0 15.4 20.4 28.6 74.7 65.6 225.0
24 15:20 25.4 27 6.36 5.1 20 26 1013.8 0 14.4 19.8 27.1 70.7 60.7 207.6
24 15:10 24.9 25 5.72 3.5 11 15 1014 0 13.1 19.1 25.3 65.8 54.5 185.6
24 15:00 25.6 24 5.71 3.6 13 24 1014.1 0 13.0 19.0 25.1 65.2 53.9 183.7
24 14:50 25.1 24 5.56 3.1 15 19 1014.3 0 12.7 18.9 24.7 64.4 52.7 179.5
24 14:40 25.2 24 5.59 3.2 19 22 1014.4 0 12.8 18.9 24.8 64.5 53.0 180.4
24 14:30 25.2 25 5.82 3.8 17 28 1014.4 0 13.3 19.2 25.5 66.4 55.3 188.6
24 14:20 25.1 26 6.02 4.3 13 17 1014.6 0 13.7 19.5 26.2 68.2 57.4 196.1
24 14:10 24.9 24 5.49 3 17 20 1014.6 0 12.6 18.8 24.6 64.0 52.1 177.4
24 14:00 24.8 25 5.69 3.5 13 24 1014.5 0 13.0 19.1 25.2 65.7 54.2 184.8
24 13:50 24.9 25 5.72 3.5 13 15 1014.8 0 13.1 19.1 25.3 65.9 54.5 185.7
24 13:40 24.9 28 6.41 5.2 11 15 1014.9 0 14.5 20.0 27.5 71.7 61.7 210.9
24 13:30 24.7 26 5.88 3.9 15 24 1014.8 0 13.4 19.4 25.9 67.4 56.3 192.0
24 13:20 24.8 26 5.92 4 13 17 1015.1 0 13.5 19.4 26.0 67.6 56.6 193.2
24 13:10 24.5 26 5.82 3.8 15 22 1015.3 0 13.3 19.4 25.8 67.1 55.8 190.3
24 13:00 23.7 24 5.13 2 13 24 1015.2 0 11.9 18.6 23.9 61.9 49.2 167.1
24 12:50 24.1 24 5.25 2.3 15 17 1015.4 0 12.1 18.7 24.1 62.7 50.2 170.6
24 12:40 24 27 5.87 3.9 9 13 1015.5 0 13.4 19.5 26.1 67.9 56.7 193.3
24 12:30 23.5 27 5.71 3.4 11 19 1015.4 0 13.1 19.4 25.7 66.9 55.4 188.6
24 12:20 23.3 26 5.44 2.7 7 9 1015.6 0 12.6 19.1 24.9 64.9 52.7 179.2
24 12:10 23.7 28 5.99 4.1 11 13 1015.6 0 13.7 19.7 26.6 69.2 58.2 198.5
24 12:00 23 28 5.75 3.5 9 17 1015.6 0 13.2 19.6 26.0 67.7 56.1 191.2
24 11:50 22.9 28 5.72 3.4 6 9 1015.9 0 13.2 19.6 26.0 67.6 55.9 190.4
24 11:40 22.5 30 5.99 4.1 9 13 1016 0 13.7 20.0 27.0 70.2 59.0 201.4
24 11:30 21.7 33 6.29 4.7 9 17 1016 0 14.4 20.6 28.2 73.5 62.9 214.8
24 11:20 21.4 36 6.75 5.7 7 9 1016.2 0 15.4 21.3 29.8 77.9 68.2 233.5
24 11:10 20.8 34 6.16 4.4 11 13 1016.3 0 14.1 20.6 28.1 73.2 62.2 212.2
24 11:00 20.9 36 6.56 5.3 11 19 1016.4 0 15.0 21.1 29.4 76.7 66.5 227.5
24 10:50 20.5 37 6.58 5.3 13 17 1016.5 0 15.0 21.3 29.6 77.3 67.1 229.4
24 10:40 20.6 30 5.37 2.4 6 6 1016.5 0 12.5 19.6 25.6 66.4 53.7 182.6
24 10:30 19.9 33 5.67 3.2 9 17 1016.4 0 13.1 20.2 26.8 69.6 57.4 195.6
24 10:20 19.3 38 6.3 4.6 4 6 1016.5 0 14.5 21.1 29.1 75.8 64.9 221.7
24 10:10 18.4 36 5.66 3.1 6 7 1016.6 0 13.2 20.5 27.2 70.8 58.4 198.8
24 10:00 17.8 40 6.07 4 6 11 1016.5 0 14.1 21.2 28.8 75.1 63.5 216.5
24 09:50 17.1 42 6.11 4.1 4 6 1016.7 0 14.2 21.4 29.2 76.1 64.5 220.0
24 09:40 16.8 47 6.72 5.4 6 6 1016.9 0 15.5 22.3 31.5 82.2 71.9 245.9
24 09:30 16.7 47 6.68 5.3 7 9 1016.8 0 15.4 22.3 31.4 81.9 71.5 244.6
24 09:20 15.8 55 7.4 6.8 6 7 1017 0 16.9 23.6 34.4 90.0 81.1 278.0
24 09:10 15.2 58 7.53 7 6 7 1017.1 0 17.2 24.0 35.1 92.0 83.3 285.8
24 09:00 15.2 65 8.44 8.7 6 9 1017 0 19.2 25.4 38.6 101.3 94.9 326.3
24 08:50 14.2 66 8.06 7.9 7 9 1017 0 18.4 25.1 37.6 98.6 91.2 313.1
24 08:40 14.2 72 8.79 9.2 6 7 1016.8 0 20.0 26.2 40.5 106.3 100.7 346.5
24 08:30 13.6 74 8.71 9.1 7 13 1016.6 0 19.8 26.3 40.5 106.3 100.4 345.4
24 08:20 13.2 77 8.84 9.3 11 13 1016.7 0 20.1 26.6 41.2 108.2 102.7 353.3
24 08:10 13.1 79 9.02 9.5 9 11 1016.7 0 20.5 26.9 42.0 110.3 105.2 362.3
24 08:00 12.5 81 8.91 9.3 9 13 1016.5 0 20.3 26.9 41.9 109.9 104.5 359.8

Last Refresh: 25-Nov-2020 00:47:33

Most of the information presented on this site is sourced from the Bureau of Meteorology.  Copyright in all material sourced from the Bureau of Meteorology resides with the Commonwealth of Australia.